Time;durP1;ratioP1;P1;durP2;ratioP2;P2;SDS_P1;SDS_P2;PMS_P1;PMS_P2;Temp;Humidity;BMP_temperature;BMP_pressure;BME280_temperature;BME280_humidity;BME280_pressure;Samples;Min_cycle;Max_cycle;Signal;HPM_P1;HPM_P2
2023/08/04 00:01:04;;;;;;;2.58;1.75;;;;;;;28.35;53.67;100031.19;5055958;28;20049;-58
2023/08/04 00:03:31;;;;;;;2.40;1.70;;;;;;;28.36;53.63;100034.81;5061594;28;20047;-59
2023/08/04 00:05:59;;;;;;;3.28;2.08;;;;;;;28.35;53.30;100035.78;5060655;28;20053;-59
2023/08/04 00:08:26;;;;;;;2.53;1.77;;;;;;;28.36;53.64;100023.91;5069841;28;20045;-59
2023/08/04 00:10:54;;;;;;;3.10;1.60;;;;;;;28.36;53.26;100015.75;5058188;28;20048;-59
2023/08/04 00:13:21;;;;;;;2.50;1.73;;;;;;;28.35;53.37;100023.00;5064791;28;20053;-59
2023/08/04 00:15:48;;;;;;;3.10;2.28;;;;;;;28.36;53.44;100026.63;5066454;28;20053;-58
2023/08/04 00:18:16;;;;;;;3.35;1.70;;;;;;;28.35;53.41;100011.28;5057680;28;20055;-58
2023/08/04 00:20:43;;;;;;;2.50;1.50;;;;;;;28.36;53.25;100021.19;5055600;28;20053;-59
2023/08/04 00:23:11;;;;;;;3.40;2.03;;;;;;;28.35;53.41;100020.28;5061998;28;20412;-59
2023/08/04 00:25:38;;;;;;;2.78;1.85;;;;;;;28.36;52.92;100010.31;5060511;28;20052;-58
2023/08/04 00:28:05;;;;;;;2.60;1.60;;;;;;;28.35;52.92;100023.00;5071281;28;20057;-54
2023/08/04 00:30:32;;;;;;;2.75;1.88;;;;;;;28.36;53.22;100021.19;5062681;28;20044;-54
2023/08/04 00:33:01;;;;;;;3.10;1.83;;;;;;;28.37;53.20;100024.75;5068922;28;20044;-55
2023/08/04 00:35:28;;;;;;;2.63;1.80;;;;;;;28.35;53.16;100025.75;5070023;28;20048;-54
2023/08/04 00:37:56;;;;;;;2.50;1.83;;;;;;;28.35;53.03;100022.19;5061731;28;20044;-58
2023/08/04 00:40:23;;;;;;;2.70;1.90;;;;;;;28.35;52.60;100022.19;5057648;28;20053;-58
2023/08/04 00:42:51;;;;;;;2.88;2.00;;;;;;;28.35;52.73;100016.72;5066786;28;20503;-58
2023/08/04 00:45:18;;;;;;;3.00;1.75;;;;;;;28.37;52.81;100013.84;5064496;28;20037;-58
2023/08/04 00:47:46;;;;;;;2.83;1.67;;;;;;;28.35;52.54;100012.13;5071877;28;20053;-58
2023/08/04 00:50:15;;;;;;;2.97;1.70;;;;;;;28.35;52.33;100008.56;5062822;28;20044;-58
2023/08/04 00:52:44;;;;;;;2.40;1.48;;;;;;;28.36;52.57;100004.84;5068135;28;20508;-58
2023/08/04 00:55:14;;;;;;;3.42;2.38;;;;;;;28.35;52.65;99998.50;5068869;28;20518;-58
2023/08/04 00:57:43;;;;;;;3.20;1.90;;;;;;;28.35;52.58;100001.25;5060335;28;20048;-58
2023/08/04 01:00:11;;;;;;;2.60;1.60;;;;;;;28.35;52.45;100009.41;5071391;28;20048;-58
2023/08/04 01:02:38;;;;;;;2.28;1.52;;;;;;;28.35;52.38;100009.41;5066531;28;20400;-58
2023/08/04 01:05:06;;;;;;;2.92;1.90;;;;;;;28.35;52.46;100016.72;5063239;28;20068;-58
2023/08/04 01:07:55;;;;;;;2.90;1.83;;;;;;;28.35;52.49;100009.41;5072961;28;20056;-55
2023/08/04 01:10:44;;;;;;;2.80;1.75;;;;;;;28.35;52.01;100009.41;5065469;28;20107;-55
2023/08/04 01:13:18;;;;;;;2.63;1.80;;;;;;;28.36;52.21;100002.13;5062255;28;20056;-54
2023/08/04 01:15:46;;;;;;;2.75;1.70;;;;;;;28.35;52.20;100009.41;5072175;28;20052;-55
2023/08/04 01:18:19;;;;;;;3.35;1.58;;;;;;;28.35;52.20;100003.97;5064068;28;20056;-58
2023/08/04 01:20:47;;;;;;;2.55;1.83;;;;;;;28.35;52.37;100003.13;5072341;28;20060;-58
2023/08/04 01:23:15;;;;;;;2.72;1.65;;;;;;;28.36;51.92;99993.97;5059741;28;20040;-58
2023/08/04 01:25:43;;;;;;;2.25;1.50;;;;;;;28.36;51.91;99996.69;5071199;28;20049;-58
2023/08/04 01:28:15;;;;;;;3.08;1.75;;;;;;;28.35;51.97;100003.13;5064838;28;20052;-54
2023/08/04 01:30:45;;;;;;;2.55;1.63;;;;;;;28.35;52.25;99992.22;5063197;28;20049;-55
2023/08/04 01:33:14;;;;;;;2.42;1.67;;;;;;;28.35;52.27;99998.50;5072134;28;20048;-54
2023/08/04 01:35:42;;;;;;;2.10;1.48;;;;;;;28.35;52.07;99997.69;5061823;28;20059;-53
2023/08/04 01:38:10;;;;;;;2.35;1.60;;;;;;;28.36;52.05;100002.13;5065438;28;20056;-53
2023/08/04 01:40:39;;;;;;;2.95;1.70;;;;;;;28.35;52.12;100008.56;5070350;28;20061;-55
2023/08/04 01:43:06;;;;;;;2.85;1.50;;;;;;;28.35;52.18;99998.50;5070102;28;20049;-55
2023/08/04 01:45:34;;;;;;;2.53;1.48;;;;;;;28.36;52.33;99996.69;5068705;28;20524;-54
2023/08/04 01:48:02;;;;;;;2.20;1.00;;;;;;;28.36;51.74;100002.13;5066057;28;20057;-54
2023/08/04 01:50:29;;;;;;;2.83;1.80;;;;;;;28.35;51.73;99994.97;5060357;28;20056;-54
2023/08/04 01:52:57;;;;;;;3.03;1.73;;;;;;;28.34;51.93;99998.75;5071045;28;20052;-55
2023/08/04 01:55:24;;;;;;;2.65;1.83;;;;;;;28.35;52.12;100000.41;5061019;28;20059;-54
2023/08/04 01:57:51;;;;;;;2.88;1.77;;;;;;;28.35;51.84;99994.97;5062786;28;20056;-53
2023/08/04 02:00:19;;;;;;;2.40;1.40;;;;;;;28.34;52.27;99996.84;5070070;28;20044;-53
2023/08/04 02:02:46;;;;;;;2.35;1.50;;;;;;;28.36;51.87;100007.56;5072929;28;20407;-55
2023/08/04 02:05:14;;;;;;;3.60;1.67;;;;;;;28.35;51.96;100009.41;5061598;28;20056;-54
2023/08/04 02:07:42;;;;;;;2.40;1.65;;;;;;;28.35;52.06;100006.69;5071384;28;20059;-58
2023/08/04 02:10:09;;;;;;;2.25;1.45;;;;;;;28.36;51.95;100010.31;5061000;28;20527;-58
2023/08/04 02:12:37;;;;;;;2.22;1.30;;;;;;;28.36;52.23;100004.84;5070741;28;20040;-58
2023/08/04 02:15:05;;;;;;;2.08;1.27;;;;;;;28.36;52.10;100007.56;5062778;28;20056;-58
2023/08/04 02:17:34;;;;;;;2.45;1.50;;;;;;;28.36;51.94;100004.84;5063131;28;20060;-58
2023/08/04 02:20:05;;;;;;;2.90;1.80;;;;;;;28.35;52.33;100003.97;5070544;28;20040;-58
2023/08/04 02:22:32;;;;;;;2.72;1.58;;;;;;;28.35;52.14;100003.97;5059014;28;20052;-58
2023/08/04 02:24:59;;;;;;;2.00;1.25;;;;;;;28.36;51.99;100010.31;5067909;28;20057;-58
2023/08/04 02:27:27;;;;;;;3.35;1.95;;;;;;;28.36;52.28;100013.03;5066139;28;20056;-55
2023/08/04 02:29:54;;;;;;;1.92;1.10;;;;;;;28.35;52.15;100008.56;5060770;28;20045;-55
2023/08/04 02:32:22;;;;;;;2.40;1.60;;;;;;;28.36;52.30;100010.31;5070414;28;20044;-55
2023/08/04 02:34:51;;;;;;;2.40;1.52;;;;;;;28.35;52.24;100003.13;5062679;28;20077;-55
2023/08/04 02:37:18;;;;;;;2.25;1.45;;;;;;;28.35;52.32;100005.84;5063503;28;20041;-54
2023/08/04 02:39:45;;;;;;;2.15;1.38;;;;;;;28.35;52.17;100003.97;5070309;28;20048;-54
2023/08/04 02:42:13;;;;;;;2.70;1.50;;;;;;;28.35;52.19;100005.84;5059732;28;20493;-55
2023/08/04 02:44:41;;;;;;;2.30;1.45;;;;;;;28.35;51.86;100006.69;5056663;28;20055;-55
2023/08/04 02:47:08;;;;;;;2.47;1.50;;;;;;;28.35;52.01;100008.56;5062460;28;20049;-59
2023/08/04 02:49:36;;;;;;;2.42;1.58;;;;;;;28.35;51.83;100011.28;5070102;28;20049;-58
2023/08/04 02:52:08;;;;;;;2.35;1.60;;;;;;;28.35;52.30;100009.41;5058580;28;20055;-58
2023/08/04 02:54:36;;;;;;;2.58;1.50;;;;;;;28.35;52.30;100003.13;5070529;28;20045;-58
2023/08/04 02:57:03;;;;;;;1.90;1.30;;;;;;;28.35;52.17;100008.56;5059619;28;20048;-58
2023/08/04 02:59:31;;;;;;;2.40;1.45;;;;;;;28.34;52.15;100002.28;5058331;28;20051;-58
2023/08/04 03:01:58;;;;;;;2.63;1.50;;;;;;;28.35;52.00;100011.28;5069858;28;20056;-58
2023/08/04 03:04:25;;;;;;;2.33;1.30;;;;;;;28.35;52.18;100005.84;5063078;28;20481;-58
2023/08/04 03:06:52;;;;;;;2.15;1.20;;;;;;;28.34;52.14;100005.00;5061789;28;20060;-55
2023/08/04 03:09:20;;;;;;;2.08;1.30;;;;;;;28.34;52.14;100001.47;5070278;28;20045;-55
2023/08/04 03:11:47;;;;;;;2.55;1.58;;;;;;;28.35;51.76;100003.97;5069107;28;20049;-54
2023/08/04 03:14:14;;;;;;;1.90;1.30;;;;;;;28.35;52.09;100005.84;5065789;28;20072;-54
2023/08/04 03:16:42;;;;;;;2.13;1.23;;;;;;;28.34;51.79;100010.47;5067104;28;20044;-57
2023/08/04 03:19:09;;;;;;;2.20;1.10;;;;;;;28.34;51.64;100002.28;5058891;28;20052;-58
2023/08/04 03:21:36;;;;;;;2.13;1.30;;;;;;;28.34;52.01;100010.47;5069295;28;20055;-58
2023/08/04 03:24:04;;;;;;;2.28;1.42;;;;;;;28.35;51.66;100008.56;5062659;28;20047;-58
2023/08/04 03:26:31;;;;;;;2.20;1.20;;;;;;;28.34;51.92;100015.06;5061693;28;20103;-58
2023/08/04 03:28:59;;;;;;;2.20;1.40;;;;;;;28.35;51.97;100011.28;5069712;28;20049;-58
2023/08/04 03:31:26;;;;;;;2.85;1.77;;;;;;;28.35;51.70;100005.84;5059066;28;20037;-58
2023/08/04 03:33:54;;;;;;;2.40;1.02;;;;;;;28.35;51.95;100003.13;5065334;28;20052;-59
2023/08/04 03:36:21;;;;;;;2.30;1.20;;;;;;;28.34;51.97;100010.47;5066491;28;20047;-58
2023/08/04 03:38:48;;;;;;;2.95;1.38;;;;;;;28.35;52.02;100023.00;5059042;28;20508;-54
2023/08/04 03:41:16;;;;;;;2.97;1.42;;;;;;;28.34;51.76;100015.91;5069086;28;20044;-55
2023/08/04 03:43:43;;;;;;;1.95;1.20;;;;;;;28.35;51.84;100011.28;5062073;28;20049;-55
2023/08/04 03:46:11;;;;;;;2.25;1.42;;;;;;;28.35;51.85;100005.84;5061449;28;20053;-54
2023/08/04 03:48:38;;;;;;;2.33;1.33;;;;;;;28.35;51.58;100005.84;5069455;28;20497;-55
2023/08/04 03:51:05;;;;;;;2.20;1.30;;;;;;;28.34;51.79;100007.72;5058425;28;20044;-54
2023/08/04 03:53:33;;;;;;;2.10;1.30;;;;;;;28.34;51.66;100007.72;5065359;28;20041;-55
2023/08/04 03:56:00;;;;;;;1.75;1.05;;;;;;;28.34;51.49;100005.00;5065890;28;20059;-55
2023/08/04 03:58:27;;;;;;;1.58;0.93;;;;;;;28.34;51.88;100006.91;5058558;28;20045;-54
2023/08/04 04:00:55;;;;;;;2.17;1.42;;;;;;;28.35;51.55;100014.00;5068736;28;20045;-55
2023/08/04 04:03:22;;;;;;;2.42;1.52;;;;;;;28.35;51.55;100011.28;5061611;28;20040;-55
2023/08/04 04:05:49;;;;;;;2.08;1.10;;;;;;;28.34;51.75;100006.91;5061324;28;20041;-55
2023/08/04 04:08:17;;;;;;;2.92;1.52;;;;;;;28.34;52.00;100010.47;5069005;28;20055;-58
2023/08/04 04:10:44;;;;;;;2.90;1.60;;;;;;;28.33;51.52;100006.06;5058197;28;20404;-58
2023/08/04 04:13:12;;;;;;;2.30;1.27;;;;;;;28.34;51.93;100006.91;5065336;28;20071;-58
2023/08/04 04:15:39;;;;;;;2.60;1.23;;;;;;;28.34;52.03;100006.91;5065517;28;20044;-58
2023/08/04 04:18:06;;;;;;;2.70;1.30;;;;;;;28.34;51.97;100007.72;5058622;28;20488;-54
2023/08/04 04:20:33;;;;;;;2.20;1.25;;;;;;;28.35;51.54;100016.72;5068995;28;20064;-55
2023/08/04 04:23:01;;;;;;;2.83;1.20;;;;;;;28.34;51.76;100015.91;5061496;28;20044;-58
2023/08/04 04:25:28;;;;;;;2.22;1.20;;;;;;;28.33;51.79;100016.97;5067595;28;20049;-58
2023/08/04 04:27:58;;;;;;;2.40;1.38;;;;;;;28.34;51.81;100017.78;5070036;28;20053;-54
2023/08/04 04:30:26;;;;;;;2.20;1.25;;;;;;;28.34;51.43;100017.78;5058304;28;20511;-55
2023/08/04 04:32:53;;;;;;;2.28;1.30;;;;;;;28.34;51.93;100015.91;5065079;28;20574;-55
2023/08/04 04:35:21;;;;;;;1.75;1.05;;;;;;;28.34;51.88;100010.47;5065238;28;20408;-58
2023/08/04 04:37:49;;;;;;;2.00;1.13;;;;;;;28.34;51.63;100010.47;5058199;28;20059;-58
2023/08/04 04:40:17;;;;;;;1.92;1.23;;;;;;;28.34;51.46;100015.06;5068539;28;20419;-58
2023/08/04 04:42:44;;;;;;;3.15;1.35;;;;;;;28.33;51.52;100011.50;5061529;28;20056;-58
2023/08/04 04:45:12;;;;;;;2.15;1.33;;;;;;;28.34;51.48;100013.19;5061059;28;20040;-58
2023/08/04 04:47:39;;;;;;;1.80;1.00;;;;;;;28.34;51.59;100018.63;5068934;28;20049;-55
2023/08/04 04:50:07;;;;;;;2.42;1.10;;;;;;;28.33;51.37;100019.69;5058086;28;20049;-55
2023/08/04 04:52:36;;;;;;;2.35;1.40;;;;;;;28.34;51.67;100010.47;5065288;28;20049;-53
2023/08/04 04:55:05;;;;;;;2.17;1.23;;;;;;;28.34;51.46;100015.91;5065480;28;20049;-55
2023/08/04 04:57:37;;;;;;;1.95;1.02;;;;;;;28.33;51.40;100025.13;5057453;28;20496;-59
2023/08/04 05:00:05;;;;;;;2.08;1.35;;;;;;;28.34;51.67;100034.13;5055673;28;20048;-58
2023/08/04 05:02:33;;;;;;;2.00;1.10;;;;;;;28.34;51.34;100034.97;5061301;28;20051;-58
2023/08/04 05:05:00;;;;;;;2.03;1.30;;;;;;;28.34;51.69;100039.56;5059231;28;20401;-59
2023/08/04 05:07:27;;;;;;;1.77;1.20;;;;;;;28.34;51.49;100050.47;5056448;28;20044;-55
2023/08/04 05:09:55;;;;;;;2.47;1.38;;;;;;;28.34;51.52;100050.47;5067304;28;20067;-55
2023/08/04 05:12:22;;;;;;;2.50;1.38;;;;;;;28.34;51.43;100053.19;5062542;28;20048;-55
2023/08/04 05:14:50;;;;;;;2.25;1.20;;;;;;;28.33;51.38;100063.22;5059814;28;20049;-54
2023/08/04 05:17:17;;;;;;;2.70;1.20;;;;;;;28.34;51.50;100069.50;5060027;28;20041;-55
2023/08/04 05:19:44;;;;;;;2.03;1.20;;;;;;;28.34;51.25;100066.78;5071039;28;20048;-53
2023/08/04 05:22:12;;;;;;;2.40;1.10;;;;;;;28.35;51.01;100084.78;5066241;28;20492;-55
2023/08/04 05:24:40;;;;;;;3.33;1.63;;;;;;;28.34;50.86;100085.84;5062751;28;20393;-55
2023/08/04 05:27:08;;;;;;;2.30;1.33;;;;;;;28.34;50.78;100083.13;5072892;28;20044;-53
2023/08/04 05:29:35;;;;;;;3.10;1.50;;;;;;;28.34;50.95;100081.22;5061826;28;20051;-55
2023/08/04 05:32:03;;;;;;;3.17;1.35;;;;;;;28.34;51.00;100088.56;5066538;28;20045;-55
2023/08/04 05:34:30;;;;;;;2.47;1.55;;;;;;;28.34;51.01;100086.69;5069270;28;20412;-55
2023/08/04 05:36:58;;;;;;;2.15;1.30;;;;;;;28.35;51.00;100084.78;5060351;28;20049;-55
2023/08/04 05:39:25;;;;;;;1.95;1.02;;;;;;;28.33;50.97;100071.41;5071286;28;20053;-54
2023/08/04 05:41:52;;;;;;;2.67;1.27;;;;;;;28.34;50.63;100073.06;5071202;28;20052;-54
2023/08/04 05:44:22;;;;;;;2.40;1.02;;;;;;;28.33;51.04;100074.13;5062384;28;20048;-55
2023/08/04 05:46:49;;;;;;;1.63;1.00;;;;;;;28.33;50.63;100079.56;5059702;28;20049;-58
2023/08/04 05:49:17;;;;;;;2.20;1.23;;;;;;;28.34;50.81;100077.69;5070255;28;20063;-58
2023/08/04 05:51:46;;;;;;;1.90;1.00;;;;;;;28.34;50.85;100081.22;5065816;28;20055;-59
2023/08/04 05:54:14;;;;;;;2.30;1.17;;;;;;;28.34;50.81;100078.50;5061850;28;20404;-59
2023/08/04 05:56:42;;;;;;;2.10;1.10;;;;;;;28.35;51.12;100082.06;5071760;28;20048;-56
2023/08/04 05:59:09;;;;;;;2.40;1.35;;;;;;;28.34;50.80;100091.28;5061896;28;20051;-59
2023/08/04 06:01:37;;;;;;;1.80;0.90;;;;;;;28.35;51.26;100084.78;5065590;28;20051;-59
2023/08/04 06:04:04;;;;;;;2.42;1.15;;;;;;;28.33;51.12;100087.72;5069082;28;20045;-59
2023/08/04 06:06:31;;;;;;;2.13;1.10;;;;;;;28.35;51.15;100098.41;5060235;28;20045;-58
2023/08/04 06:08:59;;;;;;;1.70;1.05;;;;;;;28.34;50.74;100104.91;5069808;28;20051;-56
2023/08/04 06:11:27;;;;;;;1.80;1.00;;;;;;;28.34;50.65;100116.63;5066049;28;20412;-55
2023/08/04 06:13:54;;;;;;;2.17;1.10;;;;;;;28.34;50.69;100113.91;5061736;28;20041;-55
2023/08/04 06:16:22;;;;;;;1.95;1.00;;;;;;;28.34;51.03;100113.06;5071302;28;20044;-55
2023/08/04 06:18:49;;;;;;;2.17;1.25;;;;;;;28.34;50.68;100110.34;5061355;28;20051;-55
2023/08/04 06:21:16;;;;;;;2.00;1.13;;;;;;;28.33;51.07;100112.25;5065936;28;20040;-54
2023/08/04 06:23:45;;;;;;;2.75;1.30;;;;;;;28.34;51.10;100116.63;5068737;28;20048;-55
2023/08/04 06:26:13;;;;;;;1.83;1.02;;;;;;;28.34;50.68;100110.34;5059783;28;20044;-55
2023/08/04 06:28:40;;;;;;;2.20;1.25;;;;;;;28.33;50.86;100106.78;5069302;28;20041;-55
2023/08/04 06:31:08;;;;;;;2.03;1.30;;;;;;;28.34;50.93;100104.91;5065364;28;20055;-55
2023/08/04 06:33:35;;;;;;;2.13;1.27;;;;;;;28.34;51.11;100113.06;5061632;28;20401;-55
2023/08/04 06:36:03;;;;;;;2.33;1.30;;;;;;;28.34;51.12;100105.75;5070767;28;20049;-55
2023/08/04 06:38:30;;;;;;;1.73;0.90;;;;;;;28.34;51.09;100102.19;5061516;28;20055;-55
2023/08/04 06:40:59;;;;;;;2.00;0.95;;;;;;;28.34;51.08;100104.91;5065244;28;20052;-54
2023/08/04 06:43:27;;;;;;;2.50;1.20;;;;;;;28.35;50.71;100109.28;5068769;28;20479;-55
2023/08/04 06:45:54;;;;;;;2.22;1.13;;;;;;;28.34;51.05;100102.19;5059625;28;20041;-55
2023/08/04 06:48:24;;;;;;;2.67;1.40;;;;;;;28.33;50.97;100105.97;5068716;28;20041;-55
2023/08/04 06:50:52;;;;;;;1.95;0.98;;;;;;;28.33;50.59;100098.63;5065700;28;20381;-55
2023/08/04 06:53:19;;;;;;;2.20;1.27;;;;;;;28.34;50.97;100099.47;5061071;28;20041;-55
2023/08/04 06:55:46;;;;;;;2.53;1.17;;;;;;;28.35;50.68;100092.97;5068377;28;20041;-55
2023/08/04 06:58:14;;;;;;;2.03;1.02;;;;;;;28.33;50.83;100082.28;5061621;28;20404;-55
2023/08/04 07:00:41;;;;;;;2.10;1.30;;;;;;;28.33;50.97;100065.13;5064234;28;20045;-55
2023/08/04 07:03:11;;;;;;;2.25;1.33;;;;;;;28.33;50.53;100054.22;5068404;28;20381;-55
2023/08/04 07:05:38;;;;;;;2.30;1.20;;;;;;;28.34;51.06;100050.47;5069328;28;20378;-55
2023/08/04 07:08:06;;;;;;;2.70;1.45;;;;;;;28.33;50.87;100074.13;5061502;28;20051;-56
2023/08/04 07:10:35;;;;;;;2.55;1.15;;;;;;;28.32;50.70;100075.19;5063304;28;20045;-55
2023/08/04 07:13:02;;;;;;;1.73;0.95;;;;;;;28.33;50.66;100081.47;5068828;28;20055;-56
2023/08/04 07:15:31;;;;;;;2.30;1.20;;;;;;;28.33;50.88;100076.00;5058949;28;20037;-55
2023/08/04 07:17:58;;;;;;;2.80;1.70;;;;;;;28.34;50.77;100072.25;5066967;28;20048;-56
2023/08/04 07:20:27;;;;;;;1.83;0.90;;;;;;;28.34;50.99;100074.97;5065653;28;20056;-55
2023/08/04 07:22:55;;;;;;;2.28;1.08;;;;;;;28.35;51.14;100079.34;5059686;28;20056;-55
2023/08/04 07:25:22;;;;;;;3.03;1.38;;;;;;;28.34;50.58;100069.50;5069253;28;20044;-55
2023/08/04 07:27:49;;;;;;;3.13;1.10;;;;;;;28.33;50.78;100057.78;5061804;28;20404;-53
2023/08/04 07:30:17;;;;;;;1.83;1.02;;;;;;;28.33;50.63;100065.97;5062589;28;20428;-55
2023/08/04 07:32:44;;;;;;;2.15;1.25;;;;;;;28.34;50.76;100061.34;5068892;28;20053;-55
2023/08/04 07:35:11;;;;;;;2.40;1.25;;;;;;;28.33;50.96;100046.91;5058535;28;20057;-55
2023/08/04 07:37:39;;;;;;;2.33;1.15;;;;;;;28.33;51.07;100038.75;5066123;28;20051;-55
2023/08/04 07:40:07;;;;;;;2.42;1.20;;;;;;;28.33;51.05;100025.13;5065335;28;20059;-55
2023/08/04 07:42:34;;;;;;;2.05;1.10;;;;;;;28.33;50.64;100021.56;5059527;28;20053;-54
2023/08/04 07:45:01;;;;;;;2.00;1.00;;;;;;;28.33;50.66;100019.69;5068983;28;20041;-54
2023/08/04 07:47:29;;;;;;;1.92;1.05;;;;;;;28.33;50.90;100035.19;5061119;28;20059;-59
2023/08/04 07:49:56;;;;;;;1.80;1.00;;;;;;;28.33;50.68;100046.91;5062644;28;20048;-58
2023/08/04 07:52:23;;;;;;;2.20;1.35;;;;;;;28.33;50.73;100059.69;5068458;28;20063;-59
2023/08/04 07:54:52;;;;;;;2.38;1.20;;;;;;;28.33;50.78;100046.91;5058227;28;20041;-59
2023/08/04 07:57:19;;;;;;;2.28;1.25;;;;;;;28.32;50.63;100050.69;5066377;28;20049;-54
2023/08/04 07:59:47;;;;;;;1.77;1.00;;;;;;;28.33;50.92;100060.50;5065270;28;20408;-55
2023/08/04 08:02:14;;;;;;;1.80;0.90;;;;;;;28.33;50.72;100068.69;5059882;28;20060;-54
2023/08/04 08:04:41;;;;;;;2.25;1.30;;;;;;;28.34;50.57;100062.19;5067987;28;20053;-56
2023/08/04 08:07:09;;;;;;;2.28;1.25;;;;;;;28.32;51.07;100064.28;5065347;28;20057;-58
2023/08/04 08:09:36;;;;;;;2.15;1.35;;;;;;;28.33;51.13;100079.56;5065198;28;20051;-59
2023/08/04 08:12:04;;;;;;;2.42;1.00;;;;;;;28.33;51.16;100086.91;5069859;28;20047;-59
2023/08/04 08:14:31;;;;;;;2.08;1.00;;;;;;;28.34;50.72;100078.50;5058158;28;20048;-59
2023/08/04 08:16:58;;;;;;;2.28;1.20;;;;;;;28.33;50.87;100078.72;5066384;28;20047;-59
2023/08/04 08:19:27;;;;;;;2.05;1.02;;;;;;;28.34;50.87;100077.69;5064759;28;20055;-58
2023/08/04 08:21:54;;;;;;;2.65;1.30;;;;;;;28.33;51.07;100081.47;5058994;28;20404;-59
2023/08/04 08:24:21;;;;;;;2.08;1.20;;;;;;;28.34;50.71;100094.00;5067611;28;20420;-59
2023/08/04 08:26:49;;;;;;;2.08;1.00;;;;;;;28.33;50.76;100092.34;5065464;28;20072;-58
2023/08/04 08:29:16;;;;;;;2.97;1.20;;;;;;;28.33;50.88;100105.97;5064635;28;20106;-58
2023/08/04 08:31:47;;;;;;;3.35;1.15;;;;;;;28.34;50.84;100085.84;5058926;28;20053;-58
2023/08/04 08:34:14;;;;;;;1.42;0.82;;;;;;;28.32;50.98;100086.06;5068495;28;20059;-58
2023/08/04 08:36:42;;;;;;;1.92;1.13;;;;;;;28.33;51.19;100079.56;5060955;28;20047;-56
2023/08/04 08:39:09;;;;;;;1.35;0.80;;;;;;;28.34;50.81;100088.56;5061534;28;20055;-54
2023/08/04 08:41:37;;;;;;;2.58;1.10;;;;;;;28.34;50.84;100077.69;5068308;28;20048;-55
2023/08/04 08:44:04;;;;;;;1.75;0.93;;;;;;;28.33;50.66;100081.47;5057829;28;20051;-55
2023/08/04 08:46:32;;;;;;;2.13;1.20;;;;;;;28.33;51.00;100076.00;5065579;28;20045;-55
2023/08/04 08:49:00;;;;;;;2.45;1.13;;;;;;;28.33;51.21;100076.84;5065412;28;20044;-55
2023/08/04 08:51:29;;;;;;;2.30;1.10;;;;;;;28.33;50.82;100081.47;5062068;28;20060;-54
2023/08/04 08:53:58;;;;;;;1.98;0.98;;;;;;;28.33;50.80;100070.56;5072913;28;20389;-55
2023/08/04 08:56:26;;;;;;;1.90;0.90;;;;;;;28.33;51.34;100078.72;5065234;28;20041;-55
2023/08/04 08:58:55;;;;;;;2.15;1.08;;;;;;;28.33;50.88;100081.47;5064875;28;20041;-58
2023/08/04 09:01:22;;;;;;;2.40;1.23;;;;;;;28.34;51.19;100091.28;5072757;28;20063;-58
2023/08/04 09:03:50;;;;;;;3.05;1.15;;;;;;;28.33;51.23;100081.47;5061733;28;20068;-58
2023/08/04 09:06:18;;;;;;;2.17;1.20;;;;;;;28.34;51.07;100094.00;5068258;28;20052;-58
2023/08/04 09:08:45;;;;;;;1.77;1.10;;;;;;;28.34;50.97;100094.00;5069456;28;20519;-58
2023/08/04 09:11:13;;;;;;;2.38;1.20;;;;;;;28.34;51.35;100099.47;5061617;28;20055;-58
2023/08/04 09:13:45;;;;;;;1.40;0.88;;;;;;;28.33;50.93;100098.63;5071860;28;20060;-58
2023/08/04 09:16:12;;;;;;;2.05;0.90;;;;;;;28.33;50.81;100106.78;5066178;28;20045;-58
2023/08/04 09:18:40;;;;;;;2.05;1.10;;;;;;;28.34;51.19;100104.91;5063381;28;20041;-58
2023/08/04 09:21:07;;;;;;;2.03;1.08;;;;;;;28.34;51.24;100107.63;5073010;28;20044;-58
2023/08/04 09:23:42;;;;;;;1.52;0.85;;;;;;;28.34;51.11;100110.34;5061703;28;20044;-58
2023/08/04 09:26:10;;;;;;;2.63;1.13;;;;;;;28.34;51.16;100102.19;5066709;28;20056;-58
2023/08/04 09:28:37;;;;;;;2.50;1.42;;;;;;;28.34;51.09;100118.50;5058558;28;20052;-58
2023/08/04 09:31:06;;;;;;;1.38;0.70;;;;;;;28.33;51.17;100128.56;5072078;28;20053;-58
2023/08/04 09:33:37;;;;;;;2.40;1.20;;;;;;;28.34;51.04;100121.22;5062722;28;20052;-58
2023/08/04 09:36:13;;;;;;;1.73;0.82;;;;;;;28.33;51.14;100128.56;5065119;28;20053;-58
2023/08/04 09:38:40;;;;;;;2.75;1.30;;;;;;;28.33;51.25;100141.34;5061838;28;20056;-58
2023/08/04 09:41:13;;;;;;;2.20;1.20;;;;;;;28.34;50.88;100148.47;5071456;28;20551;-58
2023/08/04 09:43:43;;;;;;;;;;;;;;;28.32;50.94;100147.84;5065531;28;20048;-58
2023/08/04 09:46:10;;;;;;;2.40;1.08;;;;;;;28.34;51.29;100153.91;5063071;28;19920;-58
2023/08/04 09:48:39;;;;;;;1.95;0.88;;;;;;;28.33;51.14;100144.91;5072812;28;20045;-55
2023/08/04 09:51:11;;;;;;;1.75;1.00;;;;;;;28.32;50.97;100145.97;5058650;28;20064;-54
2023/08/04 09:53:43;;;;;;;;;;;;;;;28.32;50.91;100151.41;5066482;28;20119;-55
2023/08/04 09:56:13;;;;;;;2.10;0.93;;;;;;;28.32;50.86;100162.28;5062538;28;19921;-55
2023/08/04 09:58:41;;;;;;;3.05;1.10;;;;;;;28.32;50.85;100156.84;5071512;28;20045;-58
2023/08/04 10:01:09;;;;;;;2.78;1.10;;;;;;;28.32;51.02;100154.13;5062247;28;20055;-58
2023/08/04 10:03:41;;;;;;;2.47;0.95;;;;;;;28.32;51.06;100159.56;5064987;28;20072;-58
2023/08/04 10:06:09;;;;;;;;;;;;;;;28.32;50.90;100165.00;5071069;28;20056;-58
2023/08/04 10:08:39;;;;;;;1.65;0.80;;;;;;;28.34;50.97;100175.69;5060373;28;19928;-55
2023/08/04 10:11:07;;;;;;;1.83;1.15;;;;;;;28.32;51.15;100175.91;5068330;28;20056;-54
2023/08/04 10:13:41;;;;;;;2.17;1.08;;;;;;;28.34;51.11;100176.50;5067580;28;20045;-55
2023/08/04 10:16:12;;;;;;;2.58;1.38;;;;;;;28.33;51.14;100171.28;5060078;28;20063;-54
2023/08/04 10:18:56;;;;;;;2.25;1.20;;;;;;;28.32;51.20;100170.47;5059106;28;20405;-55
2023/08/04 10:21:29;;;;;;;2.42;1.35;;;;;;;28.33;51.25;100157.69;5067042;28;20052;-55
2023/08/04 10:24:01;;;;;;;2.22;1.00;;;;;;;28.32;51.24;100159.56;5060363;28;20107;-54
2023/08/04 10:26:48;;;;;;;1.70;0.90;;;;;;;28.33;50.81;100161.25;5057920;28;20056;-55
2023/08/04 10:29:17;;;;;;;2.20;1.15;;;;;;;28.32;51.13;100156.84;5066848;28;20044;-54
2023/08/04 10:31:52;;;;;;;2.42;1.20;;;;;;;28.33;50.79;100152.22;5069205;28;20048;-55
2023/08/04 10:34:33;;;;;;;2.85;1.30;;;;;;;28.33;50.68;100153.06;5057894;28;20053;-54
2023/08/04 10:37:12;;;;;;;3.05;1.50;;;;;;;28.33;50.51;100163.13;5066047;28;20435;-58
2023/08/04 10:39:55;;;;;;;2.35;1.23;;;;;;;28.32;50.93;100167.72;5060938;28;20052;-58
2023/08/04 10:42:26;;;;;;;2.65;1.13;;;;;;;28.32;50.67;100154.13;5057645;28;20056;-54
2023/08/04 10:45:05;;;;;;;2.30;1.13;;;;;;;28.32;50.87;100156.00;5065836;28;20040;-54
2023/08/04 10:47:45;;;;;;;2.78;1.40;;;;;;;28.32;50.83;100148.69;5059954;28;20378;-58
2023/08/04 10:50:32;;;;;;;2.45;1.33;;;;;;;28.33;50.80;100157.69;5057418;28;20057;-58
2023/08/04 10:53:00;;;;;;;2.92;1.42;;;;;;;28.32;50.62;100156.00;5067407;28;20049;-58
2023/08/04 10:55:27;;;;;;;3.72;1.33;;;;;;;28.33;50.39;100154.97;5059007;28;20044;-58
2023/08/04 10:57:55;;;;;;;3.20;1.70;;;;;;;28.33;50.78;100152.22;5069815;28;20049;-53
2023/08/04 11:00:22;;;;;;;2.30;1.00;;;;;;;28.32;50.72;100148.69;5063994;28;20388;-54
2023/08/04 11:02:49;;;;;;;2.20;1.20;;;;;;;28.32;50.53;100151.41;5061909;28;20053;-54
2023/08/04 11:05:21;;;;;;;2.50;1.50;;;;;;;28.33;50.63;100157.69;5070771;28;20044;-55
2023/08/04 11:07:49;;;;;;;3.08;1.60;;;;;;;28.33;50.81;100152.22;5057171;28;20526;-58
2023/08/04 11:10:16;;;;;;;2.65;1.27;;;;;;;28.34;50.79;100162.06;5063985;28;20048;-58
2023/08/04 11:12:44;;;;;;;2.47;1.20;;;;;;;28.33;50.77;100155.78;5060460;28;20072;-58
2023/08/04 11:15:11;;;;;;;2.47;1.30;;;;;;;28.32;50.73;100156.84;5070911;28;20048;-58
2023/08/04 11:17:39;;;;;;;2.47;1.08;;;;;;;28.33;50.42;100157.69;5060041;28;20052;-55
2023/08/04 11:20:12;;;;;;;2.22;1.27;;;;;;;28.33;50.39;100158.50;5064673;28;20056;-55
2023/08/04 11:22:46;;;;;;;2.22;1.23;;;;;;;28.33;50.78;100153.06;5068055;28;20041;-55
2023/08/04 11:25:16;;;;;;;2.28;1.20;;;;;;;28.33;50.63;100146.78;5068356;28;20063;-55
2023/08/04 11:27:45;;;;;;;1.70;0.90;;;;;;;28.32;50.74;100150.56;5066531;28;20037;-55
2023/08/04 11:30:15;;;;;;;3.40;1.40;;;;;;;28.33;50.82;100141.34;5065483;28;20056;-55
2023/08/04 11:32:49;;;;;;;2.40;1.20;;;;;;;28.33;50.77;100139.47;5060088;28;20056;-55